• Join FlightAware (Why Join?)
  • Login
  • US Flag 
05:57AM EST


 

Airport Tracker/Info


-or-


 

Live Flight TrackerFlight Track Log ✈ RPA4264 ✈ 13-Aug-2014 ✈ KORD - KEWR

Flight Track Log - Related Links

Times and Time Zones

All times are in EDT time to prevent confusion due to time zone crossing. See the RPA4264 flight status page for this flight to view local times or setup timezone preferences in your user account.

Time Position Orientation Groundspeed Altitude Reporting Facility
EDT Latitude Longitude Course Direction KTS MPH feet Rate Location/Type
07:10PM 41.9833 -87.8833 90° East 150 173 1,900  Level Chicago TRACON
07:11PM 41.9833 -87.8167 90° East 203 234 3,300 2,100 Climbing Chicago TRACON
07:12PM 41.9847 -87.6681 89° East 270 311 7,000 2,520 Climbing Chicago Center
07:13PM 41.9931 -87.5586 84° East 292 336 9,800 2,700 Climbing Chicago Center
07:14PM 42.0194 -87.4500 72° East 304 350 12,700 2,460 Climbing Chicago Center
07:15PM 42.0483 -87.3281 72° East 319 367 15,000 1,860 Climbing Chicago Center
07:16PM 42.0797 -87.2047 71° East 348 400 16,600 1,620 Climbing Chicago Center
07:17PM 42.1100 -87.0733 73° East 372 428 18,400 1,800 Climbing Chicago Center
07:18PM 42.1169 -86.9244 86° East 393 452 20,400 1,920 Climbing Chicago Center
07:19PM 42.1236 -86.7622 87° East 403 464 22,400 1,740 Climbing Chicago Center
07:21PM 42.1297 -86.5986 87° East 413 475 24,100 1,500 Climbing Chicago Center
07:22PM 42.1342 -86.4397 88° East 421 484 25,600 1,260 Climbing Chicago Center
07:23PM 42.1397 -86.2764 87° East 434 499 26,800 1,200 Climbing Chicago Center
07:24PM 42.1444 -86.1106 88° East 437 503 28,100 1,140 Climbing Chicago Center
07:25PM 42.1428 -85.9222 91° East 446 513 29,200 960 Climbing Chicago Center
07:26PM 42.1411 -85.7500 91° East 457 526 30,100 780 Climbing Chicago Center
07:27PM 42.1389 -85.5756 91° East 465 535 30,900 900 Climbing Chicago Center
07:28PM 42.1369 -85.3639 91° East 472 543 32,000 960 Climbing Chicago Center
07:29PM 42.1356 -85.1869 91° East 474 545 32,900 480 Climbing Chicago Center
07:30PM 42.1333 -85.0094 91° East 476 548 33,000  Climbing Chicago Center
07:31PM 42.1297 -84.8344 92° East 475 547 33,000  Level Chicago Center
07:32PM 42.1272 -84.6594 91° East 472 543 33,000  Level Chicago Center
07:33PM 42.1233 -84.5300 92° East 468 539 33,000  Level Cleveland Center
07:34PM 42.1272 -84.3578 88° East 467 537 33,000  Level Cleveland Center
07:35PM 42.1147 -84.1747 95° East 470 541 33,000  Level Cleveland Center
07:36PM 42.1000 -83.9639 95° East 473 544 33,000  Level Cleveland Center
07:37PM 42.0864 -83.7892 96° East 473 544 33,000  Level Cleveland Center
07:38PM 42.0753 -83.6158 95° East 473 544 33,000  Level Cleveland Center
07:39PM 42.0592 -83.4292 97° East 476 548 33,000  Level Cleveland Center
07:40PM 42.0456 -83.2486 96° East 478 550 33,000  Level Cleveland Center
07:41PM 42.0303 -83.0506 96° East 481 554 33,000  Level Cleveland Center
07:42PM 42.0167 -82.8719 96° East 482 555 33,000  Level Cleveland Center
07:43PM 42.0017 -82.6922 96° East 483 556 33,000  Level Cleveland Center
07:44PM 41.9875 -82.5131 96° East 484 557 33,000  Level Cleveland Center
07:45PM 41.9692 -82.2969 96° East 484 557 33,000  Level Cleveland Center
07:46PM 41.9539 -82.1261 97° East 485 558 33,000  Level Cleveland Center
07:47PM 41.9369 -81.9433 97° East 486 559 33,000  Level Cleveland Center
07:48PM 41.9208 -81.7594 97° East 487 560 33,000  Level Cleveland Center
07:49PM 41.9011 -81.5444 97° East 487 560 33,000  Level Cleveland Center
07:50PM 41.8839 -81.3597 97° East 488 562 33,000  Level Cleveland Center
07:51PM 41.8669 -81.1767 97° East 489 563 33,000  Level Cleveland Center
07:52PM 41.8481 -80.9908 98° East 492 566 33,000  Level Cleveland Center
07:53PM 41.8311 -80.8078 97° East 492 566 33,000  Level Cleveland Center
07:54PM 41.8128 -80.6228 98° East 492 566 33,000  Level Cleveland Center
07:55PM 41.7944 -80.4386 98° East 493 567 33,000  Level Cleveland Center
07:56PM 41.7747 -80.2536 98° East 495 570 33,000  Level Cleveland Center
07:58PM 41.7514 -80.0375 98° East 498 573 33,000  Level Cleveland Center
07:59PM 41.7325 -79.8536 98° East 497 572 33,000  Level Cleveland Center
08:00PM 41.7125 -79.6692 98° East 498 573 33,000  Level Cleveland Center
08:01PM 41.6889 -79.4683 99° East 495 570 33,000  Level Cleveland Center
08:02PM 41.6689 -79.2842 98° East 497 572 33,000  Level Cleveland Center
08:03PM 41.6478 -79.1033 99° East 498 573 33,000  Level Cleveland Center
08:04PM 41.6275 -78.9222 98° East 496 571 33,000  Level Cleveland Center
08:05PM 41.6064 -78.7392 99° East 496 571 33,000 -420 Level Cleveland Center
08:06PM 41.5844 -78.5558 99° East 497 572 32,200 -1,020 Descending Cleveland Center
08:07PM 41.5564 -78.3250 99° East 520 598 31,000 -600 Descending Cleveland Center
08:08PM 41.5319 -78.1297 99° East 527 606 31,000  Level Cleveland Center
08:09PM 41.5078 -77.9353 99° East 528 608 31,000  Level Cleveland Center
08:10PM 41.4806 -77.7431 101° East 529 609 31,000  Level Cleveland Center
08:11PM 41.4522 -77.5481 101° East 532 612 31,000  Level Cleveland Center
08:12PM 41.4247 -77.3581 101° East 529 609 31,000  Level Cleveland Center
08:13PM 41.3908 -77.1275 101° East 531 611 31,000  Level Cleveland Center
08:14PM 41.3622 -76.9350 101° East 531 611 31,000 -1,020 Level Cleveland Center
08:15PM 41.3292 -76.7411 103° East 541 623 29,000 -2,400 Descending Cleveland Center
08:16PM 41.2678 -76.5181 110° East 538 619 25,600 -2,760 Descending New York Center
08:17PM 41.2178 -76.3400 110° East 526 605 23,000 -2,460 Descending New York Center
08:18PM 41.1683 -76.1511 109° East 502 578 20,800 -1,860 Descending New York Center
08:19PM 41.1325 -76.0189 110° East 489 563 19,300 -1,980 Descending New York Center
08:20PM 41.0861 -75.8444 109° East 467 537 16,900 -2,520 Descending New York Center
08:21PM 41.0431 -75.6789 109° East 445 512 14,300 -1,920 Descending New York Center
08:22PM 41.0008 -75.5358 111° Southeast 428 493 13,000 -1,320 Descending New York Center
08:23PM 40.9644 -75.4042 110° East 398 458 11,800 -1,500 Descending New York Center
08:24PM 40.9333 -75.2919 110° East 348 400 10,100 -2,040 Descending New York Center
08:25PM 40.9039 -75.1911 111° Southeast 314 361 7,700 -1,560 Descending New York Center
08:26PM 40.8781 -75.0989 110° East 292 336 7,000 -360 Descending New York Center
08:27PM 40.8378 -75.0058 120° Southeast 292 336 7,000  Level New York Center
08:28PM 40.7828 -74.9094 127° Southeast 297 342 7,000  Level New York Center
08:29PM 40.7358 -74.8242 126° Southeast 303 349 7,000 -300 Level New York Center
08:30PM 40.7331 -74.7200 92° East 277 319 6,400 -540 Descending New York Center
08:31PM 40.7792 -74.6489 49° Northeast 245 282 6,000 -300 Descending New York Center
08:32PM 40.8258 -74.5608 55° Northeast 270 311 5,900 -540 Descending New York Center
08:33PM 40.8611 -74.4997 53° Northeast 246 283 5,000 -480 Descending New York Center
08:34PM 40.9008 -74.4250 55° Northeast 234 269 5,000  Level New York Center
08:35PM 40.9361 -74.3667 51° Northeast 228 262 5,000 -240 Level New York Center
08:36PM 40.9500 -74.3167 70° East 240 276 4,700 -660 Descending New York TRACON
08:37PM 40.9667 -74.2167 78° East 226 260 4,000 -360 Descending New York TRACON
08:38PM 40.9333 -74.1500 123° Southeast 207 238 4,000 -480 Level New York TRACON
08:39PM 40.9000 -74.1000 131° Southeast 211 243 3,100 -600 Descending New York TRACON
08:40PM 40.8500 -74.0833 166° South 205 236 2,800 -420 Descending New York TRACON
08:41PM 40.8000 -74.1000 194° South 177 204 2,300 -780 Descending New York TRACON
08:42PM 40.7500 -74.1167 194° South 167 192 1,300 -900 Descending New York TRACON
08:43PM 40.7167 -74.1500 217° Southwest 140 161 500 -840 Descending New York TRACON